sensor_id;sensor_type;location;lat;lon;timestamp;pressure;altitude;pressure_sealevel;temperature;humidity
13869;BME280;7004;48.206;16.402;2023-02-16T00:00:28;101013.22;;;1.09;87.67
13869;BME280;7004;48.206;16.402;2023-02-16T00:02:56;101018.38;;;1.15;88.03
13869;BME280;7004;48.206;16.402;2023-02-16T00:05:24;101008.88;;;0.96;88.36
13869;BME280;7004;48.206;16.402;2023-02-16T00:07:53;101009.75;;;1.01;88.18
13869;BME280;7004;48.206;16.402;2023-02-16T00:10:21;101007.19;;;0.85;88.56
13869;BME280;7004;48.206;16.402;2023-02-16T00:12:47;101018.50;;;0.75;88.61
13869;BME280;7004;48.206;16.402;2023-02-16T00:15:33;101022.84;;;0.81;88.88
13869;BME280;7004;48.206;16.402;2023-02-16T00:18:01;101019.38;;;0.83;88.54
13869;BME280;7004;48.206;16.402;2023-02-16T00:20:29;101024.59;;;0.70;89.51
13869;BME280;7004;48.206;16.402;2023-02-16T00:22:55;101021.13;;;0.66;90.14
13869;BME280;7004;48.206;16.402;2023-02-16T00:25:22;101026.34;;;0.66;90.39
13869;BME280;7004;48.206;16.402;2023-02-16T00:27:48;101015.88;;;0.86;89.84
13869;BME280;7004;48.206;16.402;2023-02-16T00:30:17;101017.59;;;0.92;88.31
13869;BME280;7004;48.206;16.402;2023-02-16T00:32:44;101015.84;;;0.91;88.65
13869;BME280;7004;48.206;16.402;2023-02-16T00:35:18;101019.34;;;0.86;88.70
13869;BME280;7004;48.206;16.402;2023-02-16T00:37:48;101018.47;;;0.83;88.36
13869;BME280;7004;48.206;16.402;2023-02-16T00:40:16;101020.22;;;0.89;88.37
13869;BME280;7004;48.206;16.402;2023-02-16T00:42:44;101024.53;;;0.99;87.69
13869;BME280;7004;48.206;16.402;2023-02-16T00:45:18;101010.69;;;0.86;88.36
13869;BME280;7004;48.206;16.402;2023-02-16T00:47:47;101008.09;;;0.78;89.44
13869;BME280;7004;48.206;16.402;2023-02-16T00:50:32;101012.41;;;0.89;88.41
13869;BME280;7004;48.206;16.402;2023-02-16T00:52:59;101005.53;;;0.60;90.18
13869;BME280;7004;48.206;16.402;2023-02-16T00:55:33;101005.44;;;0.94;89.52
13869;BME280;7004;48.206;16.402;2023-02-16T00:58:36;101000.25;;;0.87;88.89
13869;BME280;7004;48.206;16.402;2023-02-16T01:01:09;100995.81;;;1.13;89.14
13869;BME280;7004;48.206;16.402;2023-02-16T01:03:40;100989.84;;;0.87;89.27
13869;BME280;7004;48.206;16.402;2023-02-16T01:06:08;100987.16;;;1.07;89.02
13869;BME280;7004;48.206;16.402;2023-02-16T01:08:59;100982.84;;;0.97;88.18
13869;BME280;7004;48.206;16.402;2023-02-16T01:11:46;100981.00;;;1.21;88.36
13869;BME280;7004;48.206;16.402;2023-02-16T01:14:12;100977.59;;;1.08;88.04
13869;BME280;7004;48.206;16.402;2023-02-16T01:16:41;100969.81;;;1.00;88.63
13869;BME280;7004;48.206;16.402;2023-02-16T01:19:10;100973.25;;;1.10;89.11
13869;BME280;7004;48.206;16.402;2023-02-16T01:21:37;100974.19;;;0.97;88.47
13869;BME280;7004;48.206;16.402;2023-02-16T01:24:03;100974.19;;;0.91;89.07
13869;BME280;7004;48.206;16.402;2023-02-16T01:26:29;100972.47;;;0.90;90.03
13869;BME280;7004;48.206;16.402;2023-02-16T01:28:57;100974.16;;;1.03;88.07
13869;BME280;7004;48.206;16.402;2023-02-16T01:31:23;100971.63;;;0.84;89.91
13869;BME280;7004;48.206;16.402;2023-02-16T01:33:49;100969.91;;;0.74;90.14
13869;BME280;7004;48.206;16.402;2023-02-16T01:36:39;100968.97;;;0.98;89.84
13869;BME280;7004;48.206;16.402;2023-02-16T01:39:08;100968.22;;;0.65;90.09
13869;BME280;7004;48.206;16.402;2023-02-16T01:42:12;100962.19;;;0.57;90.23
13869;BME280;7004;48.206;16.402;2023-02-16T01:44:51;100960.34;;;0.79;89.34
13869;BME280;7004;48.206;16.402;2023-02-16T01:50:24;100959.50;;;0.79;90.17
13869;BME280;7004;48.206;16.402;2023-02-16T01:53:02;100963.81;;;0.89;89.51
13869;BME280;7004;48.206;16.402;2023-02-16T01:55:45;100958.59;;;0.89;89.87
13869;BME280;7004;48.206;16.402;2023-02-16T02:03:34;100956.66;;;1.33;89.84
13869;BME280;7004;48.206;16.402;2023-02-16T02:06:32;100937.56;;;1.24;90.65
13869;BME280;7004;48.206;16.402;2023-02-16T02:09:19;100938.38;;;1.34;90.36
13869;BME280;7004;48.206;16.402;2023-02-16T02:12:06;100937.44;;;1.49;90.00
13869;BME280;7004;48.206;16.402;2023-02-16T02:14:38;100936.63;;;1.39;92.98
13869;BME280;7004;48.206;16.402;2023-02-16T02:17:13;100937.66;;;1.06;94.54
13869;BME280;7004;48.206;16.402;2023-02-16T02:20:23;100938.44;;;1.22;95.42
13869;BME280;7004;48.206;16.402;2023-02-16T02:37:52;100945.44;;;1.20;96.12
13869;BME280;7004;48.206;16.402;2023-02-16T02:43:18;100934.09;;;1.27;96.93
13869;BME280;7004;48.206;16.402;2023-02-16T02:46:01;100931.41;;;1.41;96.12
13869;BME280;7004;48.206;16.402;2023-02-16T02:48:33;100941.84;;;1.41;95.05
13869;BME280;7004;48.206;16.402;2023-02-16T02:51:02;100938.47;;;1.23;96.23
13869;BME280;7004;48.206;16.402;2023-02-16T03:03:28;100939.19;;;1.47;95.93
13869;BME280;7004;48.206;16.402;2023-02-16T03:08:39;100926.88;;;1.66;96.05
13869;BME280;7004;48.206;16.402;2023-02-16T03:11:22;100928.69;;;1.53;96.75
13869;BME280;7004;48.206;16.402;2023-02-16T03:14:24;100933.91;;;1.56;97.25
13869;BME280;7004;48.206;16.402;2023-02-16T03:16:58;100936.47;;;1.61;97.30
13869;BME280;7004;48.206;16.402;2023-02-16T03:19:47;100934.81;;;1.53;97.61
13869;BME280;7004;48.206;16.402;2023-02-16T03:22:34;100928.53;;;1.76;96.53
13869;BME280;7004;48.206;16.402;2023-02-16T03:25:22;100925.88;;;1.81;96.59
13869;BME280;7004;48.206;16.402;2023-02-16T03:28:10;100927.47;;;1.97;95.96
13869;BME280;7004;48.206;16.402;2023-02-16T03:30:57;100926.59;;;2.00;95.50
13869;BME280;7004;48.206;16.402;2023-02-16T03:33:24;100933.66;;;1.90;95.75
13869;BME280;7004;48.206;16.402;2023-02-16T03:35:52;100932.78;;;1.86;97.17
13869;BME280;7004;48.206;16.402;2023-02-16T03:38:19;100935.16;;;2.15;95.60
13869;BME280;7004;48.206;16.402;2023-02-16T03:40:48;100935.28;;;2.02;95.44
13869;BME280;7004;48.206;16.402;2023-02-16T03:43:14;100934.50;;;1.90;95.43
13869;BME280;7004;48.206;16.402;2023-02-16T03:45:42;100933.91;;;1.56;98.07
13869;BME280;7004;48.206;16.402;2023-02-16T03:48:09;100920.66;;;1.87;97.72
13869;BME280;7004;48.206;16.402;2023-02-16T03:50:35;100922.25;;;2.00;96.56
13869;BME280;7004;48.206;16.402;2023-02-16T03:53:02;100928.41;;;1.91;95.76
13869;BME280;7004;48.206;16.402;2023-02-16T03:55:44;100924.03;;;1.92;94.91
13869;BME280;7004;48.206;16.402;2023-02-16T03:58:15;100922.31;;;1.92;95.90
13869;BME280;7004;48.206;16.402;2023-02-16T04:00:42;100924.13;;;1.83;95.53
13869;BME280;7004;48.206;16.402;2023-02-16T04:03:09;100923.97;;;2.01;94.11
13869;BME280;7004;48.206;16.402;2023-02-16T04:05:36;100930.09;;;1.97;94.12
13869;BME280;7004;48.206;16.402;2023-02-16T04:08:03;100924.84;;;2.03;94.46
13869;BME280;7004;48.206;16.402;2023-02-16T04:10:29;100933.56;;;1.99;93.94
13869;BME280;7004;48.206;16.402;2023-02-16T04:12:55;100936.19;;;1.94;94.90
13869;BME280;7004;48.206;16.402;2023-02-16T04:15:25;100929.22;;;1.96;94.77
13869;BME280;7004;48.206;16.402;2023-02-16T04:17:52;100919.72;;;1.91;94.31
13869;BME280;7004;48.206;16.402;2023-02-16T04:20:23;100918.06;;;1.81;95.54
13869;BME280;7004;48.206;16.402;2023-02-16T04:22:50;100920.59;;;1.88;94.98
13869;BME280;7004;48.206;16.402;2023-02-16T04:25:17;100922.41;;;1.80;95.82
13869;BME280;7004;48.206;16.402;2023-02-16T04:27:44;100925.88;;;1.82;95.26
13869;BME280;7004;48.206;16.402;2023-02-16T04:30:15;100920.56;;;1.91;93.84
13869;BME280;7004;48.206;16.402;2023-02-16T04:32:41;100913.06;;;1.55;94.46
13869;BME280;7004;48.206;16.402;2023-02-16T04:35:08;100918.16;;;1.68;94.85
13869;BME280;7004;48.206;16.402;2023-02-16T04:37:35;100923.28;;;1.81;94.67
13869;BME280;7004;48.206;16.402;2023-02-16T04:40:02;100921.53;;;1.81;93.96
13869;BME280;7004;48.206;16.402;2023-02-16T04:42:29;100922.38;;;1.83;93.94
13869;BME280;7004;48.206;16.402;2023-02-16T04:44:55;100913.78;;;1.73;95.04
13869;BME280;7004;48.206;16.402;2023-02-16T04:47:22;100911.22;;;1.69;94.56
13869;BME280;7004;48.206;16.402;2023-02-16T04:49:51;100917.34;;;1.66;94.40
13869;BME280;7004;48.206;16.402;2023-02-16T04:52:17;100916.47;;;1.63;95.43
13869;BME280;7004;48.206;16.402;2023-02-16T04:54:44;100918.03;;;1.85;94.56
13869;BME280;7004;48.206;16.402;2023-02-16T04:57:10;100922.78;;;1.31;96.25
13869;BME280;7004;48.206;16.402;2023-02-16T04:59:37;100924.41;;;1.47;95.89
13869;BME280;7004;48.206;16.402;2023-02-16T05:02:04;100915.59;;;1.61;95.27
13869;BME280;7004;48.206;16.402;2023-02-16T05:04:30;100919.06;;;1.69;94.47
13869;BME280;7004;48.206;16.402;2023-02-16T05:06:56;100906.03;;;1.64;94.87
13869;BME280;7004;48.206;16.402;2023-02-16T05:09:22;100920.06;;;1.51;95.36
13869;BME280;7004;48.206;16.402;2023-02-16T05:11:48;100914.75;;;1.62;95.24
13869;BME280;7004;48.206;16.402;2023-02-16T05:14:35;100920.00;;;1.56;95.74
13869;BME280;7004;48.206;16.402;2023-02-16T05:17:16;100904.13;;;1.85;95.90
13869;BME280;7004;48.206;16.402;2023-02-16T05:19:47;100905.13;;;1.68;94.70
13869;BME280;7004;48.206;16.402;2023-02-16T05:22:14;100913.78;;;1.75;94.69
13869;BME280;7004;48.206;16.402;2023-02-16T05:24:41;100912.88;;;1.76;94.60
13869;BME280;7004;48.206;16.402;2023-02-16T05:27:12;100906.81;;;1.75;94.70
13869;BME280;7004;48.206;16.402;2023-02-16T05:29:39;100905.88;;;1.81;94.88
13869;BME280;7004;48.206;16.402;2023-02-16T05:32:05;100913.78;;;1.75;96.76
13869;BME280;7004;48.206;16.402;2023-02-16T05:34:31;100911.88;;;1.95;95.56
13869;BME280;7004;48.206;16.402;2023-02-16T05:36:57;100914.41;;;2.03;95.66
13869;BME280;7004;48.206;16.402;2023-02-16T05:39:24;100908.41;;;1.95;95.29
13869;BME280;7004;48.206;16.402;2023-02-16T05:41:51;100909.13;;;2.11;94.69
13869;BME280;7004;48.206;16.402;2023-02-16T05:44:17;100914.44;;;1.99;94.64
13869;BME280;7004;48.206;16.402;2023-02-16T05:46:43;100911.13;;;1.78;96.15
13869;BME280;7004;48.206;16.402;2023-02-16T05:49:12;100920.59;;;1.90;95.62
13869;BME280;7004;48.206;16.402;2023-02-16T05:51:38;100919.00;;;1.70;97.24
13869;BME280;7004;48.206;16.402;2023-02-16T05:54:05;100925.69;;;2.04;96.21
13869;BME280;7004;48.206;16.402;2023-02-16T05:56:31;100913.47;;;2.10;95.04
13869;BME280;7004;48.206;16.402;2023-02-16T05:58:59;100912.50;;;2.21;94.88
13869;BME280;7004;48.206;16.402;2023-02-16T06:01:27;100916.91;;;2.12;95.35
13869;BME280;7004;48.206;16.402;2023-02-16T06:03:54;100915.16;;;2.16;95.96
13869;BME280;7004;48.206;16.402;2023-02-16T06:06:20;100923.09;;;2.02;96.09
13869;BME280;7004;48.206;16.402;2023-02-16T06:08:47;100919.34;;;2.29;94.43
13869;BME280;7004;48.206;16.402;2023-02-16T06:11:13;100910.94;;;2.00;94.82
13869;BME280;7004;48.206;16.402;2023-02-16T06:13:58;100915.38;;;1.91;95.90
13869;BME280;7004;48.206;16.402;2023-02-16T06:16:30;100923.09;;;2.02;95.24
13869;BME280;7004;48.206;16.402;2023-02-16T06:18:57;100920.75;;;1.71;97.00
13869;BME280;7004;48.206;16.402;2023-02-16T06:21:24;100918.84;;;1.89;97.28
13869;BME280;7004;48.206;16.402;2023-02-16T06:23:51;100926.66;;;1.93;96.71
13869;BME280;7004;48.206;16.402;2023-02-16T06:26:18;100922.22;;;2.02;96.06
13869;BME280;7004;48.206;16.402;2023-02-16T06:28:44;100921.88;;;2.37;94.58
13869;BME280;7004;48.206;16.402;2023-02-16T06:31:10;100920.25;;;2.27;93.17
13869;BME280;7004;48.206;16.402;2023-02-16T06:33:37;100927.16;;;2.31;94.42
13869;BME280;7004;48.206;16.402;2023-02-16T06:36:04;100924.59;;;2.28;94.98
13869;BME280;7004;48.206;16.402;2023-02-16T06:38:31;100934.47;;;1.95;95.61
13869;BME280;7004;48.206;16.402;2023-02-16T06:40:57;100933.81;;;1.70;97.26
13869;BME280;7004;48.206;16.402;2023-02-16T06:43:23;100930.06;;;2.03;98.04
13869;BME280;7004;48.206;16.402;2023-02-16T06:45:49;100927.97;;;2.37;96.12
13869;BME280;7004;48.206;16.402;2023-02-16T06:48:15;100934.13;;;2.32;94.69
13869;BME280;7004;48.206;16.402;2023-02-16T06:50:41;100943.84;;;2.16;94.92
13869;BME280;7004;48.206;16.402;2023-02-16T06:53:08;100944.69;;;2.16;95.32
13869;BME280;7004;48.206;16.402;2023-02-16T06:55:34;100941.88;;;2.38;94.41
13869;BME280;7004;48.206;16.402;2023-02-16T06:58:03;100945.34;;;2.38;94.64
13869;BME280;7004;48.206;16.402;2023-02-16T07:00:29;100951.84;;;1.96;95.41
13869;BME280;7004;48.206;16.402;2023-02-16T07:02:56;100952.28;;;2.44;94.34
13869;BME280;7004;48.206;16.402;2023-02-16T07:05:22;100955.00;;;2.30;94.29
13869;BME280;7004;48.206;16.402;2023-02-16T07:07:48;100950.47;;;2.46;93.88
13869;BME280;7004;48.206;16.402;2023-02-16T07:10:14;100944.44;;;2.43;94.60
13869;BME280;7004;48.206;16.402;2023-02-16T07:12:40;100946.28;;;2.33;93.61
13869;BME280;7004;48.206;16.402;2023-02-16T07:15:08;100950.69;;;2.26;93.02
13869;BME280;7004;48.206;16.402;2023-02-16T07:17:34;100950.88;;;2.08;95.20
13869;BME280;7004;48.206;16.402;2023-02-16T07:20:00;100952.97;;;2.58;93.60
13869;BME280;7004;48.206;16.402;2023-02-16T07:22:26;100946.28;;;2.34;94.82
13869;BME280;7004;48.206;16.402;2023-02-16T07:24:54;100941.75;;;2.50;94.89
13869;BME280;7004;48.206;16.402;2023-02-16T07:27:24;100938.47;;;2.30;95.14
13869;BME280;7004;48.206;16.402;2023-02-16T07:29:51;100946.88;;;2.59;94.46
13869;BME280;7004;48.206;16.402;2023-02-16T07:32:17;100938.16;;;2.60;93.32
13869;BME280;7004;48.206;16.402;2023-02-16T07:34:43;100947.03;;;2.44;94.76
13869;BME280;7004;48.206;16.402;2023-02-16T07:37:11;100935.50;;;2.65;93.32
13869;BME280;7004;48.206;16.402;2023-02-16T07:39:37;100933.44;;;2.92;91.60
13869;BME280;7004;48.206;16.402;2023-02-16T07:42:03;100937.13;;;2.74;91.95
13869;BME280;7004;48.206;16.402;2023-02-16T07:44:30;100940.78;;;2.60;93.11
13869;BME280;7004;48.206;16.402;2023-02-16T07:46:56;100929.97;;;2.91;92.54
13869;BME280;7004;48.206;16.402;2023-02-16T07:49:22;100932.41;;;3.03;91.36
13869;BME280;7004;48.206;16.402;2023-02-16T07:51:48;100931.63;;;2.97;90.91
13869;BME280;7004;48.206;16.402;2023-02-16T07:54:14;100932.63;;;2.87;91.12
13869;BME280;7004;48.206;16.402;2023-02-16T07:56:41;100937.84;;;2.85;91.89
13869;BME280;7004;48.206;16.402;2023-02-16T07:59:08;100934.13;;;3.04;90.05
13869;BME280;7004;48.206;16.402;2023-02-16T08:01:34;100930.91;;;2.82;92.11
13869;BME280;7004;48.206;16.402;2023-02-16T08:04:02;100932.47;;;2.97;92.94
13869;BME280;7004;48.206;16.402;2023-02-16T08:06:28;100932.22;;;2.46;92.59
13869;BME280;7004;48.206;16.402;2023-02-16T08:08:55;100934.59;;;2.68;93.26
13869;BME280;7004;48.206;16.402;2023-02-16T08:11:24;100927.75;;;2.56;92.52
13869;BME280;7004;48.206;16.402;2023-02-16T08:13:51;100934.84;;;3.16;91.48
13869;BME280;7004;48.206;16.402;2023-02-16T08:16:24;100944.88;;;3.45;88.65
13869;BME280;7004;48.206;16.402;2023-02-16T08:18:51;100943.09;;;3.48;87.36
13869;BME280;7004;48.206;16.402;2023-02-16T08:21:24;100939.81;;;3.91;87.23
13869;BME280;7004;48.206;16.402;2023-02-16T08:24:00;100930.75;;;4.11;86.05
13869;BME280;7004;48.206;16.402;2023-02-16T08:26:31;100946.53;;;4.08;86.26
13869;BME280;7004;48.206;16.402;2023-02-16T08:28:58;100945.03;;;3.93;86.03
13869;BME280;7004;48.206;16.402;2023-02-16T08:31:27;100950.50;;;3.78;86.31
13869;BME280;7004;48.206;16.402;2023-02-16T08:33:56;100946.97;;;3.80;86.16
13869;BME280;7004;48.206;16.402;2023-02-16T08:36:27;100939.22;;;4.25;84.25
13869;BME280;7004;48.206;16.402;2023-02-16T08:39:06;100938.16;;;4.35;83.24
13869;BME280;7004;48.206;16.402;2023-02-16T08:41:35;100949.81;;;4.66;79.88
13869;BME280;7004;48.206;16.402;2023-02-16T08:44:04;100946.50;;;4.99;78.62
13869;BME280;7004;48.206;16.402;2023-02-16T08:46:32;100941.72;;;5.20;77.63
13869;BME280;7004;48.206;16.402;2023-02-16T08:49:00;100949.13;;;5.01;77.20
13869;BME280;7004;48.206;16.402;2023-02-16T08:51:33;100940.03;;;4.75;77.35
13869;BME280;7004;48.206;16.402;2023-02-16T08:54:01;100944.66;;;5.45;75.58
13869;BME280;7004;48.206;16.402;2023-02-16T08:56:28;100936.59;;;6.24;72.80
13869;BME280;7004;48.206;16.402;2023-02-16T08:59:01;100938.56;;;6.16;72.04
13869;BME280;7004;48.206;16.402;2023-02-16T09:01:27;100956.06;;;5.02;75.37
13869;BME280;7004;48.206;16.402;2023-02-16T09:03:54;100950.94;;;6.12;72.11
13869;BME280;7004;48.206;16.402;2023-02-16T09:06:21;100948.50;;;6.05;71.10
13869;BME280;7004;48.206;16.402;2023-02-16T09:08:55;100947.47;;;5.73;73.10
13869;BME280;7004;48.206;16.402;2023-02-16T09:11:23;100951.66;;;5.82;71.48
13869;BME280;7004;48.206;16.402;2023-02-16T09:13:50;100960.00;;;5.99;69.73
13869;BME280;7004;48.206;16.402;2023-02-16T09:16:21;100950.88;;;6.14;70.75
13869;BME280;7004;48.206;16.402;2023-02-16T09:18:49;100954.22;;;6.21;71.28
13869;BME280;7004;48.206;16.402;2023-02-16T09:21:22;100951.22;;;6.00;70.25
13869;BME280;7004;48.206;16.402;2023-02-16T09:23:52;100959.66;;;6.13;70.51
13869;BME280;7004;48.206;16.402;2023-02-16T09:26:22;100951.44;;;6.60;67.41
13869;BME280;7004;48.206;16.402;2023-02-16T09:28:49;100955.53;;;6.03;68.62
13869;BME280;7004;48.206;16.402;2023-02-16T09:31:19;100945.47;;;6.53;67.23
13869;BME280;7004;48.206;16.402;2023-02-16T09:34:01;100944.38;;;6.62;65.09
13869;BME280;7004;48.206;16.402;2023-02-16T09:36:30;100943.25;;;6.38;67.36
13869;BME280;7004;48.206;16.402;2023-02-16T09:38:57;100945.00;;;7.85;62.44
13869;BME280;7004;48.206;16.402;2023-02-16T09:47:32;100935.94;;;8.71;59.25
13869;BME280;7004;48.206;16.402;2023-02-16T09:50:27;100930.03;;;8.41;59.69
13869;BME280;7004;48.206;16.402;2023-02-16T09:53:35;100925.88;;;8.82;55.84
13869;BME280;7004;48.206;16.402;2023-02-16T09:56:37;100926.56;;;7.85;60.48
13869;BME280;7004;48.206;16.402;2023-02-16T10:05:02;100918.00;;;9.72;53.81
13869;BME280;7004;48.206;16.402;2023-02-16T10:08:10;100910.16;;;9.26;55.13
13869;BME280;7004;48.206;16.402;2023-02-16T10:10:54;100913.03;;;8.96;56.16
13869;BME280;7004;48.206;16.402;2023-02-16T10:13:42;100918.44;;;8.20;58.31
13869;BME280;7004;48.206;16.402;2023-02-16T10:16:23;100908.97;;;9.33;54.34
13869;BME280;7004;48.206;16.402;2023-02-16T10:18:54;100909.78;;;9.13;55.28
13869;BME280;7004;48.206;16.402;2023-02-16T10:21:25;100907.84;;;9.17;56.30
13869;BME280;7004;48.206;16.402;2023-02-16T10:24:01;100898.66;;;9.49;55.08
13869;BME280;7004;48.206;16.402;2023-02-16T10:26:46;100901.13;;;9.76;54.06
13869;BME280;7004;48.206;16.402;2023-02-16T10:29:19;100903.31;;;9.21;55.10
13869;BME280;7004;48.206;16.402;2023-02-16T10:32:21;100890.19;;;9.63;55.13
13869;BME280;7004;48.206;16.402;2023-02-16T10:43:17;100890.56;;;8.86;58.75
13869;BME280;7004;48.206;16.402;2023-02-16T10:45:55;100894.53;;;9.20;54.07
13869;BME280;7004;48.206;16.402;2023-02-16T10:48:24;100886.50;;;9.23;55.58
13869;BME280;7004;48.206;16.402;2023-02-16T10:51:02;100880.22;;;9.92;53.52
13869;BME280;7004;48.206;16.402;2023-02-16T10:53:58;100884.00;;;9.20;54.68
13869;BME280;7004;48.206;16.402;2023-02-16T10:56:48;100867.63;;;9.34;54.05
13869;BME280;7004;48.206;16.402;2023-02-16T10:59:40;100869.88;;;8.75;56.22
13869;BME280;7004;48.206;16.402;2023-02-16T11:02:37;100856.06;;;9.36;55.11
13869;BME280;7004;48.206;16.402;2023-02-16T11:05:38;100857.59;;;8.98;56.76
13869;BME280;7004;48.206;16.402;2023-02-16T11:08:06;100854.25;;;10.01;52.50
13869;BME280;7004;48.206;16.402;2023-02-16T11:10:42;100855.72;;;9.24;54.47
13869;BME280;7004;48.206;16.402;2023-02-16T11:13:31;100852.97;;;9.69;53.69
13869;BME280;7004;48.206;16.402;2023-02-16T11:16:10;100848.81;;;9.41;54.67
13869;BME280;7004;48.206;16.402;2023-02-16T11:18:48;100835.03;;;9.77;53.72
13869;BME280;7004;48.206;16.402;2023-02-16T11:21:20;100841.91;;;9.81;52.42
13869;BME280;7004;48.206;16.402;2023-02-16T11:24:13;100837.53;;;9.38;54.05
13869;BME280;7004;48.206;16.402;2023-02-16T11:29:24;100836.28;;;10.69;50.28
13869;BME280;7004;48.206;16.402;2023-02-16T11:31:51;100837.84;;;10.14;51.61
13869;BME280;7004;48.206;16.402;2023-02-16T11:34:30;100835.44;;;8.80;55.90
13869;BME280;7004;48.206;16.402;2023-02-16T11:40:12;100821.91;;;9.96;52.64
13869;BME280;7004;48.206;16.402;2023-02-16T11:42:51;100822.38;;;9.43;53.58
13869;BME280;7004;48.206;16.402;2023-02-16T11:45:28;100808.72;;;9.54;54.01
13869;BME280;7004;48.206;16.402;2023-02-16T11:48:14;100807.16;;;9.50;53.93
13869;BME280;7004;48.206;16.402;2023-02-16T11:51:00;100801.69;;;9.75;53.34
13869;BME280;7004;48.206;16.402;2023-02-16T11:53:33;100795.06;;;11.21;50.33
13869;BME280;7004;48.206;16.402;2023-02-16T11:59:18;100795.03;;;10.46;50.61
13869;BME280;7004;48.206;16.402;2023-02-16T12:07:42;100787.88;;;10.09;50.73
13869;BME280;7004;48.206;16.402;2023-02-16T12:14:35;100764.69;;;11.28;49.13
13869;BME280;7004;48.206;16.402;2023-02-16T12:19:41;100779.31;;;10.62;50.57
13869;BME280;7004;48.206;16.402;2023-02-16T12:22:48;100772.94;;;10.08;51.74
13869;BME280;7004;48.206;16.402;2023-02-16T12:25:46;100764.84;;;9.92;53.49
13869;BME280;7004;48.206;16.402;2023-02-16T12:28:29;100756.25;;;9.26;54.72
13869;BME280;7004;48.206;16.402;2023-02-16T12:31:08;100752.50;;;9.52;53.39
13869;BME280;7004;48.206;16.402;2023-02-16T12:34:07;100751.09;;;10.04;53.63
13869;BME280;7004;48.206;16.402;2023-02-16T12:37:44;100747.72;;;10.01;53.06
13869;BME280;7004;48.206;16.402;2023-02-16T12:43:40;100733.13;;;10.13;52.89
13869;BME280;7004;48.206;16.402;2023-02-16T12:46:12;100732.13;;;9.76;54.05
13869;BME280;7004;48.206;16.402;2023-02-16T12:49:22;100731.31;;;9.94;54.61
13869;BME280;7004;48.206;16.402;2023-02-16T12:51:54;100726.03;;;9.33;56.01
13869;BME280;7004;48.206;16.402;2023-02-16T12:54:31;100725.06;;;9.76;54.53
13869;BME280;7004;48.206;16.402;2023-02-16T12:57:31;100723.88;;;9.83;54.53
13869;BME280;7004;48.206;16.402;2023-02-16T13:02:43;100711.53;;;9.84;54.26
13869;BME280;7004;48.206;16.402;2023-02-16T13:05:24;100704.50;;;10.60;52.65
13869;BME280;7004;48.206;16.402;2023-02-16T13:08:04;100702.69;;;10.80;52.32
13869;BME280;7004;48.206;16.402;2023-02-16T13:13:18;100697.88;;;10.88;51.32
13869;BME280;7004;48.206;16.402;2023-02-16T13:18:37;100702.13;;;10.16;54.76
13869;BME280;7004;48.206;16.402;2023-02-16T13:21:16;100701.91;;;10.02;54.29
13869;BME280;7004;48.206;16.402;2023-02-16T13:29:36;100677.19;;;10.60;52.88
13869;BME280;7004;48.206;16.402;2023-02-16T13:46:36;100679.38;;;9.74;56.01
13869;BME280;7004;48.206;16.402;2023-02-16T13:49:03;100676.66;;;10.70;53.31
13869;BME280;7004;48.206;16.402;2023-02-16T13:51:42;100681.91;;;9.57;56.12
13869;BME280;7004;48.206;16.402;2023-02-16T13:54:33;100682.66;;;9.79;56.77
13869;BME280;7004;48.206;16.402;2023-02-16T13:57:02;100673.06;;;9.97;55.27
13869;BME280;7004;48.206;16.402;2023-02-16T14:01:56;100677.03;;;9.27;57.87
13869;BME280;7004;48.206;16.402;2023-02-16T14:06:50;100676.19;;;9.27;58.03
13869;BME280;7004;48.206;16.402;2023-02-16T14:12:46;100670.81;;;9.49;57.23
13869;BME280;7004;48.206;16.402;2023-02-16T14:22:56;100665.56;;;8.43;61.47
13869;BME280;7004;48.206;16.402;2023-02-16T14:25:33;100668.59;;;8.99;59.84
13869;BME280;7004;48.206;16.402;2023-02-16T14:30:55;100666.72;;;8.58;61.52
13869;BME280;7004;48.206;16.402;2023-02-16T14:33:44;100671.94;;;9.02;59.70
13869;BME280;7004;48.206;16.402;2023-02-16T14:36:15;100673.13;;;8.95;60.08
13869;BME280;7004;48.206;16.402;2023-02-16T14:38:49;100676.16;;;8.42;61.85
13869;BME280;7004;48.206;16.402;2023-02-16T14:50:22;100666.13;;;8.51;61.93
13869;BME280;7004;48.206;16.402;2023-02-16T14:58:55;100650.91;;;8.58;62.65
13869;BME280;7004;48.206;16.402;2023-02-16T15:01:23;100646.22;;;8.21;63.01
13869;BME280;7004;48.206;16.402;2023-02-16T15:03:53;100647.22;;;8.40;63.40
13869;BME280;7004;48.206;16.402;2023-02-16T15:06:38;100647.19;;;8.18;64.81
13869;BME280;7004;48.206;16.402;2023-02-16T15:09:22;100639.53;;;8.12;64.72
13869;BME280;7004;48.206;16.402;2023-02-16T15:11:57;100652.06;;;7.82;65.84
13869;BME280;7004;48.206;16.402;2023-02-16T15:14:50;100633.06;;;8.43;63.83
13869;BME280;7004;48.206;16.402;2023-02-16T15:17:29;100643.66;;;7.96;66.08
13869;BME280;7004;48.206;16.402;2023-02-16T15:20:03;100646.69;;;8.08;65.74
13869;BME280;7004;48.206;16.402;2023-02-16T15:22:33;100639.06;;;8.68;69.11
13869;BME280;7004;48.206;16.402;2023-02-16T15:25:04;100640.22;;;9.45;63.56
13869;BME280;7004;48.206;16.402;2023-02-16T15:27:31;100642.84;;;9.84;67.76
13869;BME280;7004;48.206;16.402;2023-02-16T15:30:23;100641.91;;;8.84;60.86
13869;BME280;7004;48.206;16.402;2023-02-16T15:35:43;100630.78;;;8.78;68.50
13869;BME280;7004;48.206;16.402;2023-02-16T15:38:22;100642.78;;;8.19;66.18
13869;BME280;7004;48.206;16.402;2023-02-16T15:40:58;100638.50;;;9.44;62.80
13869;BME280;7004;48.206;16.402;2023-02-16T15:43:46;100640.94;;;8.21;69.22
13869;BME280;7004;48.206;16.402;2023-02-16T15:46:39;100645.31;;;7.51;69.80
13869;BME280;7004;48.206;16.402;2023-02-16T15:49:33;100629.44;;;8.23;72.31
13869;BME280;7004;48.206;16.402;2023-02-16T15:52:00;100644.56;;;7.22;71.29
13869;BME280;7004;48.206;16.402;2023-02-16T15:54:30;100645.53;;;7.20;72.03
13869;BME280;7004;48.206;16.402;2023-02-16T15:57:13;100645.72;;;6.89;73.13
13869;BME280;7004;48.206;16.402;2023-02-16T15:59:58;100646.66;;;7.13;72.39
13869;BME280;7004;48.206;16.402;2023-02-16T16:02:39;100647.41;;;6.65;74.89